Time;durP1;ratioP1;P1;durP2;ratioP2;P2;SDS_P1;SDS_P2;PMS_P1;PMS_P2;Temp;Humidity;BMP_temperature;BMP_pressure;BME280_temperature;BME280_humidity;BME280_pressure;Samples;Min_cycle;Max_cycle;Signal;HPM_P1;HPM_P2
2021/09/20 00:01:12;;;;;;;19.40;10.25;;;;;;;12.94;70.48;101454.81;5072085;28;20048;-77
2021/09/20 00:03:39;;;;;;;16.75;9.65;;;;;;;12.76;70.42;101457.47;5053296;28;20092;-76
2021/09/20 00:06:07;;;;;;;20.98;10.40;;;;;;;12.78;70.32;101464.31;5054914;28;20044;-77
2021/09/20 00:08:33;;;;;;;19.15;9.60;;;;;;;12.71;70.44;101460.56;5071172;28;20140;-76
2021/09/20 00:11:00;;;;;;;23.80;10.68;;;;;;;12.68;70.23;101467.03;5072608;28;20049;-77
2021/09/20 00:13:27;;;;;;;18.65;9.93;;;;;;;12.67;70.53;101468.00;5071492;28;20551;-77
2021/09/20 00:15:54;;;;;;;16.00;9.98;;;;;;;12.68;70.86;101468.88;5070798;28;20044;-77
2021/09/20 00:18:21;;;;;;;19.55;10.15;;;;;;;12.61;70.48;101465.97;5072589;28;20071;-76
2021/09/20 00:20:47;;;;;;;16.95;9.48;;;;;;;12.52;71.14;101463.38;5072538;28;20494;-77
2021/09/20 00:23:14;;;;;;;18.45;9.80;;;;;;;12.53;71.56;101463.19;5054865;28;20116;-76
2021/09/20 00:25:41;;;;;;;24.60;10.75;;;;;;;12.51;71.12;101461.69;5072642;28;20040;-76
2021/09/20 00:28:07;;;;;;;19.15;9.80;;;;;;;12.45;70.82;101461.28;5072240;28;20109;-75
2021/09/20 00:30:37;;;;;;;18.92;10.00;;;;;;;12.45;71.05;101457.78;5070813;28;20056;-76
2021/09/20 00:33:09;;;;;;;20.23;9.70;;;;;;;12.46;70.76;101459.44;5070032;28;20036;-75
2021/09/20 00:35:36;;;;;;;16.92;9.88;;;;;;;12.52;71.09;101452.72;5070932;28;20397;-76
2021/09/20 00:38:03;;;;;;;18.75;10.40;;;;;;;12.56;70.63;101457.59;5070958;28;20523;-76
2021/09/20 00:40:30;;;;;;;20.88;11.23;;;;;;;12.58;70.98;101457.44;5072345;28;20040;-76
2021/09/20 00:42:57;;;;;;;19.60;10.18;;;;;;;12.53;70.95;101460.53;5072311;28;20040;-76
2021/09/20 00:45:24;;;;;;;17.33;10.35;;;;;;;12.44;71.10;101461.44;5070929;28;20068;-76
2021/09/20 00:47:51;;;;;;;17.13;9.93;;;;;;;12.40;71.31;101457.41;5071752;28;20055;-76
2021/09/20 00:50:18;;;;;;;16.65;10.93;;;;;;;12.42;71.36;101472.22;5058337;28;20051;-76
2021/09/20 00:52:44;;;;;;;18.33;10.57;;;;;;;12.35;71.14;101465.84;5074757;28;20036;-76
2021/09/20 00:55:12;;;;;;;18.27;10.82;;;;;;;12.33;71.50;101466.97;5058419;28;20435;-76
2021/09/20 00:57:41;;;;;;;17.35;10.55;;;;;;;12.38;71.28;101475.34;5075912;28;20404;-76
2021/09/20 01:00:09;;;;;;;18.38;10.80;;;;;;;12.36;71.44;101470.16;5075466;28;20036;-76
2021/09/20 01:02:36;;;;;;;17.85;10.60;;;;;;;12.41;71.36;101472.38;5075680;28;20048;-76
2021/09/20 01:05:05;;;;;;;16.25;10.35;;;;;;;12.34;71.59;101460.66;5074329;28;20556;-76
2021/09/20 01:07:32;;;;;;;17.65;10.60;;;;;;;12.35;71.17;101473.81;5074635;28;20568;-75
2021/09/20 01:10:00;;;;;;;17.05;10.18;;;;;;;12.32;71.54;101478.59;5074261;28;20053;-76
2021/09/20 01:12:27;;;;;;;17.08;10.02;;;;;;;12.31;71.36;101477.75;5075793;28;20036;-76
2021/09/20 01:14:56;;;;;;;17.45;10.40;;;;;;;12.21;72.07;101467.16;5073655;28;20045;-76
2021/09/20 01:17:24;;;;;;;18.35;11.02;;;;;;;12.15;72.17;101474.88;5074488;28;20041;-76
2021/09/20 01:19:50;;;;;;;15.00;10.02;;;;;;;12.13;71.90;101472.34;5057408;28;20051;-76
2021/09/20 01:22:20;;;;;;;19.88;10.52;;;;;;;12.14;72.29;101473.22;5061774;28;20036;-76
2021/09/20 01:24:47;;;;;;;19.42;11.02;;;;;;;12.13;72.70;101474.19;5088938;28;20062;-76
2021/09/20 01:27:18;;;;;;;19.60;11.38;;;;;;;12.10;72.67;101473.50;5094821;28;20040;-76
2021/09/20 01:29:46;;;;;;;19.55;10.85;;;;;;;12.09;72.97;101470.97;5077074;28;20094;-76
2021/09/20 01:32:13;;;;;;;18.08;11.00;;;;;;;12.09;72.78;101473.63;5074227;28;20115;-76
2021/09/20 01:34:40;;;;;;;18.98;10.90;;;;;;;12.07;72.36;101476.44;5074904;28;20128;-76
2021/09/20 01:37:07;;;;;;;16.65;11.82;;;;;;;12.06;72.24;101473.91;5074103;28;20051;-76
2021/09/20 01:39:38;;;;;;;18.80;10.88;;;;;;;12.08;72.21;101471.97;5075080;28;20037;-76
2021/09/20 01:42:05;;;;;;;15.73;10.50;;;;;;;12.07;72.23;101471.13;5057244;28;20394;-76
2021/09/20 01:44:32;;;;;;;22.67;11.02;;;;;;;12.05;72.09;101462.47;5073776;28;20045;-76
2021/09/20 01:46:59;;;;;;;18.58;11.65;;;;;;;11.99;72.26;101462.19;5074760;28;20050;-76
2021/09/20 01:49:27;;;;;;;18.55;11.55;;;;;;;11.98;72.25;101464.03;5073748;28;20037;-76
2021/09/20 01:51:55;;;;;;;16.48;10.70;;;;;;;11.99;72.01;101472.81;5073406;28;20047;-76
2021/09/20 01:54:22;;;;;;;19.40;10.82;;;;;;;11.96;71.64;101467.81;5074487;28;20516;-76
2021/09/20 01:56:49;;;;;;;16.02;10.65;;;;;;;11.96;71.49;101473.97;5055837;28;20444;-76
2021/09/20 01:59:16;;;;;;;18.45;11.32;;;;;;;12.00;71.52;101466.53;5060574;28;20160;-76
2021/09/20 02:01:43;;;;;;;17.77;11.10;;;;;;;11.99;71.72;101476.34;5086077;28;20064;-76
2021/09/20 02:04:10;;;;;;;22.70;10.38;;;;;;;11.99;72.14;101471.03;5054427;28;20033;-76
2021/09/20 02:06:37;;;;;;;20.50;11.25;;;;;;;11.96;72.46;101468.66;5086771;28;20520;-76
2021/09/20 02:09:09;;;;;;;18.83;11.75;;;;;;;11.88;73.07;101464.03;5066557;28;20131;-76
2021/09/20 02:11:37;;;;;;;18.40;10.43;;;;;;;11.93;72.76;101468.09;5056619;28;20059;-76
2021/09/20 02:14:04;;;;;;;17.95;11.32;;;;;;;11.89;72.25;101457.72;5057604;28;20064;-76
2021/09/20 02:16:32;;;;;;;19.08;11.38;;;;;;;11.90;72.40;101464.75;5036220;28;20056;-76
2021/09/20 02:18:58;;;;;;;17.20;11.20;;;;;;;11.93;71.87;101471.59;5036678;28;20049;-76
2021/09/20 02:21:25;;;;;;;20.25;11.73;;;;;;;11.90;71.86;101471.91;5054319;28;20465;-76
2021/09/20 02:23:52;;;;;;;18.80;11.25;;;;;;;11.89;71.71;101472.84;5053070;28;20445;-76
2021/09/20 02:26:19;;;;;;;18.55;10.73;;;;;;;11.92;71.82;101472.59;5054419;28;20123;-76
2021/09/20 02:28:46;;;;;;;19.10;11.85;;;;;;;11.91;72.39;101476.22;5067186;28;20036;-76
2021/09/20 02:31:13;;;;;;;22.50;11.65;;;;;;;11.86;71.96;101471.31;5072161;28;20067;-76
2021/09/20 02:33:40;;;;;;;20.42;10.90;;;;;;;11.91;71.96;101470.91;5072862;28;20041;-76
2021/09/20 02:36:08;;;;;;;18.33;11.50;;;;;;;11.88;71.94;101479.16;5055989;28;20520;-75
2021/09/20 02:38:36;;;;;;;18.60;11.55;;;;;;;11.83;72.08;101484.06;5073988;28;20041;-76
2021/09/20 02:41:04;;;;;;;17.02;10.73;;;;;;;11.86;72.16;101473.13;5039622;28;20040;-76
2021/09/20 02:43:30;;;;;;;17.77;11.10;;;;;;;11.75;72.49;101475.94;5072473;28;20527;-76
2021/09/20 02:45:57;;;;;;;18.98;11.15;;;;;;;11.74;72.78;101482.28;5055904;28;20037;-76
2021/09/20 02:48:24;;;;;;;17.73;10.55;;;;;;;11.72;73.00;101474.44;5072397;28;20099;-76
2021/09/20 02:50:52;;;;;;;24.35;11.60;;;;;;;11.71;73.00;101473.59;5056131;28;20040;-76
2021/09/20 02:53:18;;;;;;;19.98;11.77;;;;;;;11.68;73.14;101473.06;5072414;28;20115;-76
2021/09/20 02:55:45;;;;;;;20.95;11.48;;;;;;;11.66;72.79;101480.31;5070574;28;20469;-76
2021/09/20 02:58:14;;;;;;;19.42;11.35;;;;;;;11.63;72.89;101478.78;5073667;28;20066;-76
2021/09/20 03:00:40;;;;;;;22.63;11.85;;;;;;;11.61;73.40;101471.94;5071619;28;20400;-76
2021/09/20 03:03:07;;;;;;;19.77;11.02;;;;;;;11.63;73.14;101473.47;5073373;28;20040;-75
2021/09/20 03:05:35;;;;;;;25.65;11.40;;;;;;;11.59;72.96;101473.88;5073481;28;20060;-76
2021/09/20 03:08:03;;;;;;;19.85;11.48;;;;;;;11.63;73.40;101475.28;5073287;28;20040;-76
2021/09/20 03:10:31;;;;;;;21.25;11.15;;;;;;;11.61;73.20;101480.75;5055008;28;20178;-76
2021/09/20 03:12:58;;;;;;;20.52;11.55;;;;;;;11.62;73.28;101473.59;5072169;28;20485;-76
2021/09/20 03:15:25;;;;;;;17.40;10.93;;;;;;;11.65;73.10;101476.00;5054895;28;20048;-76
2021/09/20 03:17:52;;;;;;;17.35;10.95;;;;;;;11.64;72.96;101476.94;5073380;28;20086;-75
2021/09/20 03:20:19;;;;;;;19.52;12.15;;;;;;;11.58;73.50;101474.88;5071896;28;20131;-75
2021/09/20 03:22:46;;;;;;;21.55;11.32;;;;;;;11.61;72.68;101480.75;5056389;28;20513;-76
2021/09/20 03:25:13;;;;;;;19.73;11.80;;;;;;;11.59;73.21;101476.53;5091258;28;20500;-76
2021/09/20 03:27:41;;;;;;;19.23;11.02;;;;;;;11.57;73.13;101478.50;5090401;28;20039;-76
2021/09/20 03:30:09;;;;;;;20.10;11.10;;;;;;;11.53;73.63;101478.81;5071049;28;20041;-76
2021/09/20 03:32:36;;;;;;;17.83;11.20;;;;;;;11.50;73.63;101481.75;5072008;28;20040;-76
2021/09/20 03:35:05;;;;;;;19.55;11.38;;;;;;;11.48;73.50;101481.06;5073164;28;20040;-76
2021/09/20 03:37:33;;;;;;;19.08;11.48;;;;;;;11.46;73.43;101483.00;5073648;28;20052;-76
2021/09/20 03:40:00;;;;;;;21.00;11.45;;;;;;;11.42;73.60;101492.22;5071608;28;20055;-76
2021/09/20 03:42:26;;;;;;;18.30;10.95;;;;;;;11.41;73.45;101489.75;5038892;28;20424;-76
2021/09/20 03:44:53;;;;;;;20.15;11.35;;;;;;;11.43;73.28;101495.75;5071720;28;20493;-76
2021/09/20 03:47:20;;;;;;;21.70;12.48;;;;;;;11.40;73.28;101503.97;5022034;28;20044;-76
2021/09/20 03:49:47;;;;;;;19.70;11.68;;;;;;;11.47;73.32;101502.44;5053161;28;20044;-76
2021/09/20 03:52:14;;;;;;;23.65;12.43;;;;;;;11.41;73.35;101501.19;5071579;28;20036;-76
2021/09/20 03:54:41;;;;;;;19.88;12.05;;;;;;;11.36;73.37;101510.56;5072894;28;20124;-76
2021/09/20 03:57:08;;;;;;;21.35;12.73;;;;;;;11.30;73.58;101506.66;5071218;28;20047;-76
2021/09/20 03:59:35;;;;;;;20.83;11.18;;;;;;;11.27;73.61;101507.75;5072734;28;20127;-76
2021/09/20 04:02:01;;;;;;;19.70;11.65;;;;;;;11.27;73.85;101509.59;5072076;28;20459;-76
2021/09/20 04:04:28;;;;;;;21.45;11.60;;;;;;;11.30;73.60;101511.97;5072387;28;20045;-76
2021/09/20 04:06:55;;;;;;;21.10;11.98;;;;;;;11.28;73.47;101512.09;5071583;28;20485;-76
2021/09/20 04:09:23;;;;;;;24.38;11.32;;;;;;;11.33;73.18;101523.16;5072598;28;20124;-76
2021/09/20 04:11:50;;;;;;;17.80;11.30;;;;;;;11.32;73.61;101517.97;5052335;28;20052;-76
2021/09/20 04:14:16;;;;;;;21.98;11.50;;;;;;;11.32;73.35;101524.13;5052449;28;20048;-76
2021/09/20 04:16:43;;;;;;;19.25;11.98;;;;;;;11.32;73.60;101520.63;5050992;28;20131;-75
2021/09/20 04:19:10;;;;;;;19.52;11.75;;;;;;;11.34;73.35;101516.00;5050791;28;20044;-76
2021/09/20 04:21:37;;;;;;;20.17;11.85;;;;;;;11.34;73.38;101521.31;5051064;28;20060;-76
2021/09/20 04:24:04;;;;;;;22.35;11.70;;;;;;;11.31;73.62;101527.78;5021354;28;20075;-76
2021/09/20 04:26:31;;;;;;;20.17;11.13;;;;;;;11.33;74.08;101516.97;5055372;28;20044;-76
2021/09/20 04:28:58;;;;;;;21.77;11.20;;;;;;;11.27;74.32;101520.22;5050562;28;20064;-75
2021/09/20 04:31:25;;;;;;;23.65;12.15;;;;;;;11.29;74.52;101528.88;5054920;28;20049;-76
2021/09/20 04:33:51;;;;;;;21.17;12.32;;;;;;;11.31;74.35;101524.25;5056179;28;20171;-76
2021/09/20 04:36:18;;;;;;;21.17;12.02;;;;;;;11.33;74.33;101531.13;5055128;28;20045;-76
2021/09/20 04:38:45;;;;;;;21.00;11.95;;;;;;;11.33;74.53;101532.91;5054843;28;20413;-76
2021/09/20 04:41:12;;;;;;;21.05;12.48;;;;;;;11.35;74.08;101528.34;5054934;28;20041;-76
2021/09/20 04:43:38;;;;;;;19.83;11.82;;;;;;;11.41;74.11;101533.06;5021847;28;20390;-76
2021/09/20 04:46:05;;;;;;;23.65;11.73;;;;;;;11.40;74.19;101533.22;5054089;28;20053;-75
2021/09/20 04:48:32;;;;;;;20.48;12.18;;;;;;;11.41;73.54;101534.91;5055981;28;20067;-75
2021/09/20 04:50:59;;;;;;;23.40;11.80;;;;;;;11.39;73.65;101543.00;5038410;28;20044;-76
2021/09/20 04:53:26;;;;;;;22.65;12.30;;;;;;;11.36;74.26;101539.78;5054876;28;20037;-76
2021/09/20 04:55:52;;;;;;;20.85;12.18;;;;;;;11.41;74.12;101548.19;5038106;28;20593;-76
2021/09/20 04:58:19;;;;;;;22.23;12.48;;;;;;;11.38;74.00;101548.44;5057323;28;20037;-75
2021/09/20 05:00:46;;;;;;;21.50;12.52;;;;;;;11.39;74.51;101548.31;5055228;28;20051;-76
2021/09/20 05:03:13;;;;;;;20.27;12.60;;;;;;;11.38;74.46;101556.41;5055802;28;20037;-75
2021/09/20 05:05:39;;;;;;;21.50;11.65;;;;;;;11.36;74.66;101548.59;5054504;28;20041;-75
2021/09/20 05:08:07;;;;;;;23.70;12.02;;;;;;;11.33;74.65;101556.81;5057065;28;20478;-75
2021/09/20 05:10:34;;;;;;;23.23;12.32;;;;;;;11.30;74.39;101551.81;5074475;28;20045;-76
2021/09/20 05:13:02;;;;;;;21.25;12.07;;;;;;;11.27;74.96;101560.03;5075789;28;20106;-76
2021/09/20 05:15:29;;;;;;;21.30;12.38;;;;;;;11.31;74.76;101562.31;5074999;28;20493;-76
2021/09/20 05:17:56;;;;;;;21.77;11.85;;;;;;;11.33;74.70;101559.47;5073824;28;20059;-76
2021/09/20 05:20:23;;;;;;;22.75;12.05;;;;;;;11.29;74.60;101566.88;5075324;28;20044;-76
2021/09/20 05:22:50;;;;;;;24.92;12.63;;;;;;;11.32;74.46;101563.97;5074504;28;20056;-76
2021/09/20 05:25:17;;;;;;;20.95;12.88;;;;;;;11.29;74.51;101569.53;5089538;28;20036;-76
2021/09/20 05:27:44;;;;;;;22.88;12.80;;;;;;;11.36;74.77;101569.84;5094022;28;20119;-76
2021/09/20 05:30:12;;;;;;;23.08;12.65;;;;;;;11.40;75.13;101571.22;5074976;28;20051;-76
2021/09/20 05:32:40;;;;;;;26.27;12.98;;;;;;;11.44;75.10;101571.78;5073237;28;20047;-76
2021/09/20 05:35:09;;;;;;;25.02;12.65;;;;;;;11.41;75.35;101574.75;5073340;28;20067;-76
2021/09/20 05:37:37;;;;;;;27.95;12.85;;;;;;;11.43;75.06;101573.63;5075073;28;20071;-76
2021/09/20 05:40:05;;;;;;;23.35;12.70;;;;;;;11.47;74.74;101572.34;5073444;28;20048;-76
2021/09/20 05:42:31;;;;;;;23.02;12.65;;;;;;;11.56;74.95;101570.69;5071686;28;20036;-76
2021/09/20 05:44:58;;;;;;;28.60;12.90;;;;;;;11.59;74.65;101564.22;5074555;28;20037;-76
2021/09/20 05:47:25;;;;;;;25.05;12.57;;;;;;;11.66;75.05;101570.66;5074205;28;20044;-76
2021/09/20 05:49:52;;;;;;;25.63;13.07;;;;;;;11.74;75.07;101573.47;5074264;28;20401;-76
2021/09/20 05:52:22;;;;;;;22.63;12.80;;;;;;;11.84;74.12;101569.00;5073039;28;20421;-76
2021/09/20 05:54:49;;;;;;;22.40;13.18;;;;;;;11.87;74.03;101563.38;5074000;28;20041;-76
2021/09/20 05:57:16;;;;;;;27.25;13.18;;;;;;;11.97;73.75;101574.03;5074256;28;20055;-76
2021/09/20 05:59:43;;;;;;;27.90;12.63;;;;;;;12.00;73.69;101568.41;5073187;28;20131;-75
2021/09/20 06:02:10;;;;;;;23.77;13.20;;;;;;;12.06;73.57;101570.53;5072772;28;20424;-76
2021/09/20 06:04:36;;;;;;;28.88;13.15;;;;;;;12.12;72.91;101578.91;5073198;28;20119;-76
2021/09/20 06:07:05;;;;;;;25.77;13.25;;;;;;;12.12;72.63;101573.59;5072762;28;20068;-76
2021/09/20 06:09:35;;;;;;;23.77;12.77;;;;;;;12.17;71.96;101577.50;5073119;28;20044;-76
2021/09/20 06:12:03;;;;;;;23.75;13.25;;;;;;;12.24;72.11;101577.75;5074268;28;20068;-76
2021/09/20 06:14:30;;;;;;;24.70;12.32;;;;;;;12.29;71.62;101581.63;5074258;28;20043;-75
2021/09/20 06:16:58;;;;;;;22.73;12.88;;;;;;;12.34;71.89;101577.72;5072953;28;20048;-76
2021/09/20 06:19:24;;;;;;;27.13;12.80;;;;;;;12.37;71.30;101593.38;5074007;28;20032;-76
2021/09/20 06:21:51;;;;;;;23.80;12.77;;;;;;;12.43;71.02;101584.84;5056251;28;20063;-75
2021/09/20 06:24:18;;;;;;;20.60;13.13;;;;;;;12.48;70.70;101587.91;5072493;28;20040;-75
2021/09/20 06:26:45;;;;;;;27.05;12.57;;;;;;;12.49;71.17;101595.72;5056105;28;20053;-76
2021/09/20 06:29:12;;;;;;;21.90;12.80;;;;;;;12.54;70.50;101595.28;5074107;28;20045;-75
2021/09/20 06:31:39;;;;;;;26.17;13.15;;;;;;;12.54;70.71;101597.94;5072554;28;20044;-76
2021/09/20 06:34:06;;;;;;;19.73;12.48;;;;;;;12.62;70.49;101599.88;5072026;28;20048;-76
2021/09/20 06:36:33;;;;;;;24.70;12.63;;;;;;;12.68;70.05;101600.13;5074033;28;20090;-76
2021/09/20 06:39:00;;;;;;;23.40;13.13;;;;;;;12.72;70.29;101597.19;5055882;28;20047;-75
2021/09/20 06:41:27;;;;;;;24.33;12.82;;;;;;;12.75;69.94;101603.06;5056208;28;20119;-76
2021/09/20 06:43:54;;;;;;;24.95;13.32;;;;;;;12.86;70.13;101600.19;5055567;28;20040;-76
2021/09/20 06:46:21;;;;;;;23.48;13.63;;;;;;;12.97;70.16;101599.16;5054923;28;20045;-76
2021/09/20 06:48:47;;;;;;;23.45;12.88;;;;;;;12.97;69.46;101598.28;5052319;28;20087;-76
2021/09/20 06:51:14;;;;;;;25.17;13.63;;;;;;;13.01;69.90;101599.69;5069337;28;20489;-76
2021/09/20 06:53:41;;;;;;;24.42;13.35;;;;;;;12.92;69.42;101593.44;5053466;28;20486;-76
2021/09/20 06:56:08;;;;;;;24.27;12.77;;;;;;;13.03;69.36;101606.53;5035605;28;20563;-76
2021/09/20 06:58:35;;;;;;;26.00;12.90;;;;;;;13.07;69.58;101607.09;5041143;28;20520;-75
2021/09/20 07:01:02;;;;;;;29.48;13.32;;;;;;;13.16;69.50;101614.19;5053048;28;20049;-74
2021/09/20 07:03:29;;;;;;;31.23;13.02;;;;;;;13.22;69.50;101613.59;5053617;28;20048;-76
2021/09/20 07:05:56;;;;;;;25.88;13.57;;;;;;;13.27;69.30;101618.47;5058439;28;20055;-76
2021/09/20 07:08:22;;;;;;;25.90;13.50;;;;;;;13.33;68.73;101622.38;5070377;28;20491;-76
2021/09/20 07:10:49;;;;;;;22.38;13.10;;;;;;;13.34;68.91;101624.06;5072174;28;20068;-76
2021/09/20 07:13:16;;;;;;;20.50;12.55;;;;;;;13.42;68.23;101627.66;5069903;28;20040;-76
2021/09/20 07:15:44;;;;;;;24.77;12.48;;;;;;;13.48;67.93;101617.34;5064368;28;20039;-76
2021/09/20 07:18:11;;;;;;;21.80;12.98;;;;;;;13.67;66.90;101619.88;5057221;28;20044;-76
2021/09/20 07:20:39;;;;;;;28.00;12.85;;;;;;;13.71;67.20;101623.91;5071041;28;20040;-76
2021/09/20 07:23:06;;;;;;;20.13;11.90;;;;;;;13.77;66.21;101623.31;5051677;28;20051;-76
2021/09/20 07:25:32;;;;;;;21.80;12.20;;;;;;;13.76;66.95;101618.13;5092518;27;20104;-77
2021/09/20 07:27:59;;;;;;;27.88;13.15;;;;;;;13.78;67.04;101630.31;5099498;27;20036;-76
2021/09/20 07:30:26;;;;;;;25.17;12.32;;;;;;;13.90;66.49;101632.72;5073477;28;20056;-76
2021/09/20 07:32:53;;;;;;;21.52;12.15;;;;;;;13.98;66.49;101635.47;5069756;28;20059;-76
2021/09/20 07:35:21;;;;;;;33.30;12.77;;;;;;;14.02;65.62;101629.69;5075789;28;20105;-77
2021/09/20 07:37:51;;;;;;;22.77;12.43;;;;;;;14.06;66.03;101632.88;5062623;28;20040;-76
2021/09/20 07:40:20;;;;;;;25.50;12.10;;;;;;;14.15;65.64;101639.97;5067329;28;20036;-76
2021/09/20 07:42:48;;;;;;;23.10;12.35;;;;;;;14.10;65.39;101638.72;5074587;28;20040;-76
2021/09/20 07:45:15;;;;;;;21.95;11.93;;;;;;;14.04;65.21;101629.50;5087258;28;20058;-76
2021/09/20 07:47:42;;;;;;;24.77;11.43;;;;;;;14.20;65.01;101626.97;5077431;28;20044;-76
2021/09/20 07:50:10;;;;;;;18.85;11.77;;;;;;;14.26;64.53;101646.88;5072237;28;20041;-76
2021/09/20 07:52:38;;;;;;;22.80;11.13;;;;;;;14.30;64.76;101645.56;5067763;28;20055;-76
2021/09/20 07:55:06;;;;;;;22.33;11.23;;;;;;;14.29;64.86;101651.03;5079064;28;20032;-75
2021/09/20 07:57:33;;;;;;;26.58;12.07;;;;;;;14.45;64.11;101645.00;5068145;28;20037;-74
2021/09/20 08:00:01;;;;;;;21.92;12.13;;;;;;;14.50;64.26;101643.50;5064323;28;20075;-75
2021/09/20 08:02:32;;;;;;;22.45;12.20;;;;;;;14.51;63.68;101649.69;5077370;28;20420;-75
2021/09/20 08:04:59;;;;;;;20.65;11.95;;;;;;;14.68;63.94;101647.97;5067217;28;20036;-75
2021/09/20 08:07:26;;;;;;;25.30;12.68;;;;;;;14.68;62.97;101643.47;5060889;28;20041;-75
2021/09/20 08:09:53;;;;;;;19.83;11.43;;;;;;;14.70;62.52;101649.50;5083545;28;20516;-75
2021/09/20 08:12:19;;;;;;;22.63;11.73;;;;;;;14.67;62.88;101651.66;5072779;28;20043;-74
2021/09/20 08:14:46;;;;;;;21.38;12.25;;;;;;;14.74;63.64;101648.19;5082110;28;20041;-75
2021/09/20 08:17:14;;;;;;;29.98;12.32;;;;;;;14.73;63.29;101657.16;5085199;28;20036;-75
2021/09/20 08:19:40;;;;;;;23.70;11.63;;;;;;;14.93;62.85;101652.41;5072932;28;20037;-75
2021/09/20 08:22:10;;;;;;;21.40;11.45;;;;;;;14.95;62.23;101649.59;5072962;28;20417;-75
2021/09/20 08:24:36;;;;;;;24.90;12.23;;;;;;;14.93;61.82;101656.94;5087456;28;20187;-75
2021/09/20 08:27:04;;;;;;;24.02;12.27;;;;;;;15.02;62.09;101658.63;5068947;28;20040;-75
2021/09/20 08:29:31;;;;;;;22.23;12.10;;;;;;;14.93;61.11;101659.59;5059882;28;20037;-75
2021/09/20 08:31:59;;;;;;;18.83;11.63;;;;;;;14.88;61.52;101656.56;5079493;28;20052;-75
2021/09/20 08:34:28;;;;;;;27.00;11.50;;;;;;;14.96;62.45;101665.47;5050561;28;20080;-75
2021/09/20 08:36:55;;;;;;;21.77;11.75;;;;;;;15.04;62.02;101666.50;5060540;28;20047;-75
2021/09/20 08:39:22;;;;;;;20.00;11.38;;;;;;;14.93;61.91;101668.44;5057726;28;20079;-75
2021/09/20 08:41:50;;;;;;;20.38;11.38;;;;;;;15.00;62.21;101670.50;5073987;28;20055;-75
2021/09/20 08:44:18;;;;;;;22.65;11.40;;;;;;;15.05;61.76;101669.03;5069404;28;20090;-75
2021/09/20 08:46:48;;;;;;;22.65;11.45;;;;;;;15.13;61.88;101662.84;5086854;28;20040;-75
2021/09/20 08:49:15;;;;;;;21.80;11.00;;;;;;;15.19;61.24;101667.56;5065279;28;20492;-75
2021/09/20 08:51:41;;;;;;;18.40;10.75;;;;;;;15.18;61.34;101665.88;5068906;28;20048;-75
2021/09/20 08:54:09;;;;;;;20.65;11.07;;;;;;;15.23;60.86;101666.25;5069886;28;20110;-75
2021/09/20 08:56:37;;;;;;;18.42;10.15;;;;;;;15.30;60.36;101682.47;5071950;28;20094;-75
2021/09/20 08:59:04;;;;;;;19.05;10.35;;;;;;;15.28;59.31;101676.44;5083572;28;20043;-75
2021/09/20 09:01:31;;;;;;;23.02;9.73;;;;;;;15.55;59.29;101678.88;5073183;28;20123;-76
2021/09/20 09:04:31;;;;;;;19.30;9.90;;;;;;;15.72;58.27;101689.59;5073777;28;20047;-75
2021/09/20 09:07:04;;;;;;;16.75;9.65;;;;;;;15.79;57.47;101690.66;5066968;28;20071;-75
2021/09/20 09:09:34;;;;;;;17.10;9.43;;;;;;;15.86;56.97;101694.34;5080852;28;20043;-75
2021/09/20 09:12:22;;;;;;;16.35;9.02;;;;;;;15.85;57.51;101699.84;5069494;28;20035;-75
2021/09/20 09:14:58;;;;;;;18.48;9.07;;;;;;;15.88;57.13;101700.34;5075471;28;20463;-74
2021/09/20 09:17:29;;;;;;;18.83;9.27;;;;;;;16.03;56.68;101695.16;5076638;28;20381;-75
2021/09/20 09:20:05;;;;;;;19.23;9.00;;;;;;;16.04;56.58;101698.69;5084139;28;20127;-76
2021/09/20 09:22:46;;;;;;;18.40;9.32;;;;;;;16.11;56.04;101705.88;5075647;28;20291;-76
2021/09/20 09:25:17;;;;;;;17.92;10.45;;;;;;;16.16;55.04;101696.53;5079012;28;20036;-76
2021/09/20 09:27:47;;;;;;;21.92;11.50;;;;;;;16.29;54.94;101708.38;5074093;28;20095;-75
2021/09/20 09:30:19;;;;;;;14.77;8.75;;;;;;;16.45;53.31;101704.03;5077221;28;20044;-74
2021/09/20 09:32:48;;;;;;;20.50;8.38;;;;;;;16.51;53.37;101706.00;5068304;28;20048;-75
2021/09/20 09:35:16;;;;;;;14.98;7.65;;;;;;;16.79;53.88;101716.34;5068224;28;20397;-75
2021/09/20 09:37:45;;;;;;;17.15;8.07;;;;;;;16.88;52.27;101710.84;5062348;28;20050;-75
2021/09/20 09:40:17;;;;;;;15.75;8.10;;;;;;;17.40;50.37;101709.44;5035842;28;20033;-75
2021/09/20 09:42:45;;;;;;;;;;;;;;;17.28;50.73;101710.81;5103719;27;20068;-75
2021/09/20 09:45:17;;;;;;;19.02;8.38;;;;;;;17.12;51.17;101711.75;5058982;28;19921;-74
2021/09/20 09:47:44;;;;;;;18.35;7.68;;;;;;;17.08;50.91;101718.44;5069564;28;20051;-74
2021/09/20 09:50:15;;;;;;;14.13;8.00;;;;;;;17.29;51.40;101714.38;5087872;28;20040;-75
2021/09/20 09:52:44;;;;;;;18.13;8.07;;;;;;;17.72;49.69;101715.63;5075516;28;20122;-75
2021/09/20 09:55:12;;;;;;;14.40;7.70;;;;;;;17.95;49.09;101712.16;5062948;28;20036;-75
2021/09/20 09:57:39;;;;;;;18.42;8.02;;;;;;;18.06;49.01;101719.78;5068488;28;20048;-75
2021/09/20 10:00:10;;;;;;;20.10;7.93;;;;;;;18.22;48.33;101711.59;5118773;27;20044;-76
2021/09/20 10:02:41;;;;;;;13.93;8.00;;;;;;;18.38;48.13;101718.66;5054706;28;20064;-75
2021/09/20 10:05:11;;;;;;;17.02;7.93;;;;;;;18.54;47.60;101712.31;5063576;28;20036;-75
2021/09/20 10:07:43;;;;;;;16.73;8.52;;;;;;;19.02;45.22;101725.44;5085334;28;20078;-75
2021/09/20 10:10:20;;;;;;;15.90;7.80;;;;;;;19.89;43.47;101713.84;5078281;28;20037;-75
2021/09/20 10:12:50;;;;;;;15.45;7.85;;;;;;;19.90;43.40;101717.38;5058388;28;20123;-75
2021/09/20 10:15:24;;;;;;;14.57;7.63;;;;;;;19.54;44.76;101716.34;5087537;28;20519;-75
2021/09/20 10:17:51;;;;;;;19.95;7.38;;;;;;;19.41;45.45;101731.50;5082571;28;20074;-75
2021/09/20 10:20:21;;;;;;;13.15;7.70;;;;;;;19.94;43.58;101726.75;5072173;28;20044;-75
2021/09/20 10:22:48;;;;;;;15.07;7.35;;;;;;;19.06;44.92;101720.50;5074912;28;20051;-75
2021/09/20 10:25:17;;;;;;;15.68;6.80;;;;;;;19.07;44.62;101722.19;5054909;28;20048;-75
2021/09/20 10:27:45;;;;;;;16.13;7.00;;;;;;;18.96;45.28;101726.19;5066476;28;20055;-75
2021/09/20 10:30:17;;;;;;;16.52;7.30;;;;;;;18.68;46.24;101729.47;5077145;28;20044;-75
2021/09/20 10:32:52;;;;;;;14.23;6.63;;;;;;;18.67;46.51;101726.97;5084262;28;20068;-75
2021/09/20 10:35:23;;;;;;;15.93;7.00;;;;;;;18.71;45.84;101728.28;5060064;28;20041;-74
2021/09/20 10:37:51;;;;;;;16.00;7.47;;;;;;;18.41;45.92;101731.75;5057158;28;20444;-75
2021/09/20 10:40:19;;;;;;;18.75;7.18;;;;;;;18.22;46.72;101733.06;5063700;28;20083;-75
2021/09/20 10:42:49;;;;;;;12.80;7.53;;;;;;;18.14;47.46;101737.69;5072815;28;20044;-75
2021/09/20 10:45:40;;;;;;;14.32;7.22;;;;;;;18.19;46.51;101744.19;5070743;28;20128;-75
2021/09/20 10:48:18;;;;;;;12.60;7.07;;;;;;;18.11;46.11;101738.88;5073821;28;20513;-75
2021/09/20 10:53:32;;;;;;;17.65;7.30;;;;;;;17.71;47.97;101732.75;5140234;27;20396;-74
2021/09/20 10:58:43;;;;;;;13.82;7.20;;;;;;;17.95;46.80;101736.31;5071811;28;20402;-74
2021/09/20 11:03:54;;;;;;;16.63;7.32;;;;;;;18.01;46.38;101728.38;5104489;27;20121;-74
2021/09/20 11:11:44;;;;;;;13.95;7.10;;;;;;;18.21;46.90;101731.41;5111059;27;20323;-74
2021/09/20 11:14:16;;;;;;;12.23;7.25;;;;;;;19.18;45.00;101730.63;5096805;28;20036;-75
2021/09/20 11:17:00;;;;;;;17.90;7.30;;;;;;;19.26;44.33;101736.91;5090782;28;20044;-75
2021/09/20 11:25:06;;;;;;;16.25;8.18;;;;;;;19.57;43.08;101736.66;5104304;28;20746;-73
2021/09/20 11:27:38;;;;;;;24.40;7.55;;;;;;;19.37;42.63;101726.53;5092265;28;20097;-74
2021/09/20 11:30:12;;;;;;;16.05;7.55;;;;;;;20.05;42.76;101731.63;5088775;28;20032;-73
2021/09/20 11:33:02;;;;;;;18.90;8.27;;;;;;;20.38;41.83;101727.56;5085377;28;20033;-74
2021/09/20 11:35:32;;;;;;;22.75;8.40;;;;;;;20.43;41.97;101728.63;5074607;28;20039;-74